sensor_id;sensor_type;location;lat;lon;timestamp;pressure;altitude;pressure_sealevel;temperature;humidity
71770;BME280;66386;52.122;5.420;2023-05-20T00:00:32;102651.00;;;12.01;66.11
71770;BME280;66386;52.122;5.420;2023-05-20T00:02:58;102652.78;;;11.98;66.33
71770;BME280;66386;52.122;5.420;2023-05-20T00:05:26;102645.09;;;11.95;66.25
71770;BME280;66386;52.122;5.420;2023-05-20T00:07:52;102649.38;;;11.91;66.32
71770;BME280;66386;52.122;5.420;2023-05-20T00:10:19;102647.72;;;11.88;66.46
71770;BME280;66386;52.122;5.420;2023-05-20T00:12:45;102642.59;;;11.85;66.55
71770;BME280;66386;52.122;5.420;2023-05-20T00:15:12;102648.66;;;11.81;67.10
71770;BME280;66386;52.122;5.420;2023-05-20T00:17:38;102640.97;;;11.80;66.84
71770;BME280;66386;52.122;5.420;2023-05-20T00:20:05;102642.72;;;11.76;67.05
71770;BME280;66386;52.122;5.420;2023-05-20T00:22:32;102643.63;;;11.72;67.12
71770;BME280;66386;52.122;5.420;2023-05-20T00:24:58;102650.53;;;11.68;67.23
71770;BME280;66386;52.122;5.420;2023-05-20T00:27:25;102648.84;;;11.67;67.28
71770;BME280;66386;52.122;5.420;2023-05-20T00:29:51;102655.72;;;11.67;67.21
71770;BME280;66386;52.122;5.420;2023-05-20T00:32:18;102646.28;;;11.66;67.32
71770;BME280;66386;52.122;5.420;2023-05-20T00:34:54;102652.31;;;11.63;67.46
71770;BME280;66386;52.122;5.420;2023-05-20T00:37:21;102645.50;;;11.58;67.56
71770;BME280;66386;52.122;5.420;2023-05-20T00:39:48;102642.94;;;11.56;67.72
71770;BME280;66386;52.122;5.420;2023-05-20T00:42:21;102639.53;;;11.56;67.88
71770;BME280;66386;52.122;5.420;2023-05-20T00:44:47;102637.03;;;11.51;67.89
71770;BME280;66386;52.122;5.420;2023-05-20T00:47:16;102632.78;;;11.45;68.19
71770;BME280;66386;52.122;5.420;2023-05-20T00:49:44;102635.38;;;11.44;68.31
71770;BME280;66386;52.122;5.420;2023-05-20T00:52:14;102636.22;;;11.44;68.26
71770;BME280;66386;52.122;5.420;2023-05-20T00:54:41;102636.22;;;11.44;68.18
71770;BME280;66386;52.122;5.420;2023-05-20T00:57:08;102631.94;;;11.45;68.31
71770;BME280;66386;52.122;5.420;2023-05-20T00:59:36;102627.69;;;11.42;68.49
71770;BME280;66386;52.122;5.420;2023-05-20T01:02:03;102626.81;;;11.40;68.65
71770;BME280;66386;52.122;5.420;2023-05-20T01:04:31;102620.00;;;11.39;68.59
71770;BME280;66386;52.122;5.420;2023-05-20T01:07:01;102620.91;;;11.35;68.82
71770;BME280;66386;52.122;5.420;2023-05-20T01:09:28;102629.47;;;11.34;69.21
71770;BME280;66386;52.122;5.420;2023-05-20T01:12:17;102621.78;;;11.32;69.04
71770;BME280;66386;52.122;5.420;2023-05-20T01:15:08;102619.25;;;11.28;69.02
71770;BME280;66386;52.122;5.420;2023-05-20T01:17:42;102615.88;;;11.26;69.28
71770;BME280;66386;52.122;5.420;2023-05-20T01:20:13;102611.59;;;11.23;69.33
71770;BME280;66386;52.122;5.420;2023-05-20T01:22:54;102610.72;;;11.23;69.69
71770;BME280;66386;52.122;5.420;2023-05-20T01:25:21;102605.66;;;11.16;69.69
71770;BME280;66386;52.122;5.420;2023-05-20T01:27:48;102605.66;;;11.15;69.68
71770;BME280;66386;52.122;5.420;2023-05-20T01:30:15;102609.09;;;11.14;69.89
71770;BME280;66386;52.122;5.420;2023-05-20T01:32:51;102611.69;;;11.12;69.98
71770;BME280;66386;52.122;5.420;2023-05-20T01:35:19;102607.44;;;11.10;69.99
71770;BME280;66386;52.122;5.420;2023-05-20T01:37:49;102598.88;;;11.08;70.20
71770;BME280;66386;52.122;5.420;2023-05-20T01:40:17;102597.19;;;11.05;70.26
71770;BME280;66386;52.122;5.420;2023-05-20T01:42:44;102592.09;;;11.00;70.37
71770;BME280;66386;52.122;5.420;2023-05-20T01:45:11;102587.84;;;10.99;70.46
71770;BME280;66386;52.122;5.420;2023-05-20T01:47:38;102585.28;;;10.95;70.69
71770;BME280;66386;52.122;5.420;2023-05-20T01:50:05;102593.06;;;10.90;71.05
71770;BME280;66386;52.122;5.420;2023-05-20T01:52:32;102585.34;;;10.90;70.89
71770;BME280;66386;52.122;5.420;2023-05-20T01:54:58;102594.84;;;10.85;71.10
71770;BME280;66386;52.122;5.420;2023-05-20T01:57:25;102587.16;;;10.82;71.35
71770;BME280;66386;52.122;5.420;2023-05-20T01:59:51;102586.28;;;10.80;71.64
71770;BME280;66386;52.122;5.420;2023-05-20T02:02:18;102588.88;;;10.80;71.56
71770;BME280;66386;52.122;5.420;2023-05-20T02:04:46;102588.03;;;10.79;71.46
71770;BME280;66386;52.122;5.420;2023-05-20T02:07:14;102585.50;;;10.76;71.49
71770;BME280;66386;52.122;5.420;2023-05-20T02:09:40;102578.66;;;10.72;71.86
71770;BME280;66386;52.122;5.420;2023-05-20T02:12:07;102578.69;;;10.69;71.87
71770;BME280;66386;52.122;5.420;2023-05-20T02:14:34;102588.09;;;10.69;71.82
71770;BME280;66386;52.122;5.420;2023-05-20T02:17:02;102588.16;;;10.64;72.25
71770;BME280;66386;52.122;5.420;2023-05-20T02:19:28;102583.88;;;10.61;72.31
71770;BME280;66386;52.122;5.420;2023-05-20T02:21:55;102590.78;;;10.58;72.28
71770;BME280;66386;52.122;5.420;2023-05-20T02:24:22;102588.22;;;10.58;72.67
71770;BME280;66386;52.122;5.420;2023-05-20T02:26:48;102589.97;;;10.56;72.42
71770;BME280;66386;52.122;5.420;2023-05-20T02:29:16;102590.81;;;10.55;72.70
71770;BME280;66386;52.122;5.420;2023-05-20T02:31:43;102587.38;;;10.53;72.69
71770;BME280;66386;52.122;5.420;2023-05-20T02:34:09;102584.00;;;10.51;72.82
71770;BME280;66386;52.122;5.420;2023-05-20T02:36:36;102590.91;;;10.45;73.00
71770;BME280;66386;52.122;5.420;2023-05-20T02:39:02;102582.34;;;10.43;73.21
71770;BME280;66386;52.122;5.420;2023-05-20T02:41:29;102576.38;;;10.41;73.37
71770;BME280;66386;52.122;5.420;2023-05-20T02:43:55;102574.66;;;10.40;73.25
71770;BME280;66386;52.122;5.420;2023-05-20T02:46:22;102578.09;;;10.36;73.34
71770;BME280;66386;52.122;5.420;2023-05-20T02:48:49;102571.25;;;10.32;73.35
71770;BME280;66386;52.122;5.420;2023-05-20T02:51:15;102568.72;;;10.29;73.62
71770;BME280;66386;52.122;5.420;2023-05-20T02:53:42;102567.00;;;10.25;73.88
71770;BME280;66386;52.122;5.420;2023-05-20T02:56:08;102566.19;;;10.21;74.09
71770;BME280;66386;52.122;5.420;2023-05-20T02:58:35;102561.06;;;10.20;74.23
71770;BME280;66386;52.122;5.420;2023-05-20T03:01:02;102560.22;;;10.18;74.28
71770;BME280;66386;52.122;5.420;2023-05-20T03:03:29;102563.69;;;10.15;74.87
71770;BME280;66386;52.122;5.420;2023-05-20T03:05:55;102557.69;;;10.13;74.55
71770;BME280;66386;52.122;5.420;2023-05-20T03:08:22;102566.28;;;10.12;74.77
71770;BME280;66386;52.122;5.420;2023-05-20T03:10:49;102572.28;;;10.11;74.87
71770;BME280;66386;52.122;5.420;2023-05-20T03:13:16;102561.16;;;10.10;74.85
71770;BME280;66386;52.122;5.420;2023-05-20T03:15:42;102574.84;;;10.09;74.76
71770;BME280;66386;52.122;5.420;2023-05-20T03:18:12;102572.31;;;10.06;75.06
71770;BME280;66386;52.122;5.420;2023-05-20T03:20:39;102574.03;;;10.04;75.29
71770;BME280;66386;52.122;5.420;2023-05-20T03:23:07;102569.78;;;10.02;75.71
71770;BME280;66386;52.122;5.420;2023-05-20T03:25:35;102574.91;;;10.00;75.72
71770;BME280;66386;52.122;5.420;2023-05-20T03:28:02;102574.06;;;9.98;75.78
71770;BME280;66386;52.122;5.420;2023-05-20T03:30:29;102580.94;;;9.98;75.70
71770;BME280;66386;52.122;5.420;2023-05-20T03:32:55;102580.06;;;9.97;75.93
71770;BME280;66386;52.122;5.420;2023-05-20T03:35:23;102576.66;;;9.93;76.17
71770;BME280;66386;52.122;5.420;2023-05-20T03:37:50;102576.66;;;9.93;75.98
71770;BME280;66386;52.122;5.420;2023-05-20T03:40:19;102582.66;;;9.91;76.08
71770;BME280;66386;52.122;5.420;2023-05-20T03:42:46;102577.56;;;9.88;76.31
71770;BME280;66386;52.122;5.420;2023-05-20T03:45:14;102578.41;;;9.87;76.62
71770;BME280;66386;52.122;5.420;2023-05-20T03:47:40;102574.16;;;9.87;76.44
71770;BME280;66386;52.122;5.420;2023-05-20T03:50:07;102571.56;;;9.87;76.45
71770;BME280;66386;52.122;5.420;2023-05-20T03:52:34;102575.00;;;9.88;76.74
71770;BME280;66386;52.122;5.420;2023-05-20T03:55:00;102573.25;;;9.90;76.78
71770;BME280;66386;52.122;5.420;2023-05-20T03:57:27;102577.53;;;9.92;76.78
71770;BME280;66386;52.122;5.420;2023-05-20T03:59:54;102563.84;;;9.92;76.86
71770;BME280;66386;52.122;5.420;2023-05-20T04:02:21;102575.81;;;9.94;77.01
71770;BME280;66386;52.122;5.420;2023-05-20T04:04:48;102572.38;;;9.94;77.05
71770;BME280;66386;52.122;5.420;2023-05-20T04:07:18;102568.09;;;9.98;77.08
71770;BME280;66386;52.122;5.420;2023-05-20T04:09:44;102572.34;;;9.99;77.03
71770;BME280;66386;52.122;5.420;2023-05-20T04:12:12;102563.78;;;10.00;77.31
71770;BME280;66386;52.122;5.420;2023-05-20T04:14:39;102571.44;;;10.04;77.27
71770;BME280;66386;52.122;5.420;2023-05-20T04:17:07;102571.44;;;10.06;77.27
71770;BME280;66386;52.122;5.420;2023-05-20T04:19:35;102574.00;;;10.12;77.22
71770;BME280;66386;52.122;5.420;2023-05-20T04:22:03;102575.63;;;10.18;77.30
71770;BME280;66386;52.122;5.420;2023-05-20T04:24:30;102571.31;;;10.26;76.73
71770;BME280;66386;52.122;5.420;2023-05-20T04:26:57;102571.25;;;10.30;77.01
71770;BME280;66386;52.122;5.420;2023-05-20T04:29:23;102572.97;;;10.35;76.68
71770;BME280;66386;52.122;5.420;2023-05-20T04:31:50;102575.53;;;10.36;76.65
71770;BME280;66386;52.122;5.420;2023-05-20T04:34:17;102569.53;;;10.37;76.73
71770;BME280;66386;52.122;5.420;2023-05-20T04:36:45;102575.53;;;10.38;76.71
71770;BME280;66386;52.122;5.420;2023-05-20T04:39:12;102577.22;;;10.40;76.53
71770;BME280;66386;52.122;5.420;2023-05-20T04:41:39;102579.78;;;10.42;76.78
71770;BME280;66386;52.122;5.420;2023-05-20T04:44:05;102579.75;;;10.43;76.70
71770;BME280;66386;52.122;5.420;2023-05-20T04:46:32;102584.06;;;10.43;77.20
71770;BME280;66386;52.122;5.420;2023-05-20T04:48:59;102581.47;;;10.44;76.73
71770;BME280;66386;52.122;5.420;2023-05-20T04:51:25;102581.44;;;10.47;76.61
71770;BME280;66386;52.122;5.420;2023-05-20T04:53:52;102587.41;;;10.51;76.61
71770;BME280;66386;52.122;5.420;2023-05-20T04:56:18;102583.94;;;10.57;76.44
71770;BME280;66386;52.122;5.420;2023-05-20T04:58:46;102584.78;;;10.59;76.46
71770;BME280;66386;52.122;5.420;2023-05-20T05:01:12;102580.47;;;10.61;76.79
71770;BME280;66386;52.122;5.420;2023-05-20T05:03:39;102581.31;;;10.64;76.69
71770;BME280;66386;52.122;5.420;2023-05-20T05:06:05;102577.00;;;10.67;76.65
71770;BME280;66386;52.122;5.420;2023-05-20T05:08:32;102576.13;;;10.69;76.71
71770;BME280;66386;52.122;5.420;2023-05-20T05:10:58;102579.50;;;10.73;76.32
71770;BME280;66386;52.122;5.420;2023-05-20T05:13:25;102571.78;;;10.74;76.44
71770;BME280;66386;52.122;5.420;2023-05-20T05:15:58;102576.00;;;10.80;76.23
71770;BME280;66386;52.122;5.420;2023-05-20T05:18:25;102568.25;;;10.85;76.11
71770;BME280;66386;52.122;5.420;2023-05-20T05:21:03;102567.34;;;10.89;76.11
71770;BME280;66386;52.122;5.420;2023-05-20T05:23:30;102570.75;;;10.94;75.99
71770;BME280;66386;52.122;5.420;2023-05-20T05:25:57;102577.53;;;10.99;76.20
71770;BME280;66386;52.122;5.420;2023-05-20T05:28:24;102569.78;;;11.03;75.98
71770;BME280;66386;52.122;5.420;2023-05-20T05:30:53;102568.88;;;11.08;75.71
71770;BME280;66386;52.122;5.420;2023-05-20T05:33:19;102574.81;;;11.12;75.89
71770;BME280;66386;52.122;5.420;2023-05-20T05:35:46;102566.16;;;11.19;75.81
71770;BME280;66386;52.122;5.420;2023-05-20T05:38:13;102566.09;;;11.24;75.62
71770;BME280;66386;52.122;5.420;2023-05-20T05:40:40;102562.59;;;11.31;75.47
71770;BME280;66386;52.122;5.420;2023-05-20T05:43:07;102562.50;;;11.37;75.96
71770;BME280;66386;52.122;5.420;2023-05-20T05:45:33;102564.16;;;11.43;75.71
71770;BME280;66386;52.122;5.420;2023-05-20T05:48:00;102557.22;;;11.49;75.23
71770;BME280;66386;52.122;5.420;2023-05-20T05:50:26;102558.84;;;11.57;74.69
71770;BME280;66386;52.122;5.420;2023-05-20T05:52:53;102556.19;;;11.63;74.79
71770;BME280;66386;52.122;5.420;2023-05-20T05:55:19;102550.91;;;11.70;74.79
71770;BME280;66386;52.122;5.420;2023-05-20T05:57:46;102551.69;;;11.77;74.43
71770;BME280;66386;52.122;5.420;2023-05-20T06:00:13;102550.72;;;11.84;74.45
71770;BME280;66386;52.122;5.420;2023-05-20T06:02:39;102551.44;;;11.93;74.34
71770;BME280;66386;52.122;5.420;2023-05-20T06:05:07;102550.47;;;12.03;74.37
71770;BME280;66386;52.122;5.420;2023-05-20T06:07:33;102544.94;;;12.76;73.52
71770;BME280;66386;52.122;5.420;2023-05-20T06:10:00;102544.44;;;15.18;66.08
71770;BME280;66386;52.122;5.420;2023-05-20T06:12:27;102542.28;;;16.93;60.04
71770;BME280;66386;52.122;5.420;2023-05-20T06:14:53;102539.66;;;18.07;56.70
71770;BME280;66386;52.122;5.420;2023-05-20T06:17:20;102543.69;;;18.56;53.15
71770;BME280;66386;52.122;5.420;2023-05-20T06:19:46;102538.41;;;18.78;52.98
71770;BME280;66386;52.122;5.420;2023-05-20T06:22:13;102549.56;;;19.00;52.08
71770;BME280;66386;52.122;5.420;2023-05-20T06:24:39;102542.03;;;19.32;50.85
71770;BME280;66386;52.122;5.420;2023-05-20T06:27:06;102542.41;;;19.25;50.54
71770;BME280;66386;52.122;5.420;2023-05-20T06:29:32;102544.06;;;19.26;50.38
71770;BME280;66386;52.122;5.420;2023-05-20T06:31:59;102550.91;;;19.28;50.03
71770;BME280;66386;52.122;5.420;2023-05-20T06:34:25;102542.03;;;19.13;49.59
71770;BME280;66386;52.122;5.420;2023-05-20T06:36:52;102538.59;;;19.13;51.07
71770;BME280;66386;52.122;5.420;2023-05-20T06:39:18;102538.53;;;19.33;50.09
71770;BME280;66386;52.122;5.420;2023-05-20T06:41:45;102544.63;;;19.51;49.95
71770;BME280;66386;52.122;5.420;2023-05-20T06:44:12;102542.66;;;19.18;49.67
71770;BME280;66386;52.122;5.420;2023-05-20T06:46:38;102542.66;;;18.99;51.25
71770;BME280;66386;52.122;5.420;2023-05-20T06:49:05;102534.69;;;19.02;50.31
71770;BME280;66386;52.122;5.420;2023-05-20T06:51:31;102535.44;;;18.86;50.45
71770;BME280;66386;52.122;5.420;2023-05-20T06:53:58;102536.13;;;18.70;50.84
71770;BME280;66386;52.122;5.420;2023-05-20T06:56:24;102531.56;;;18.75;52.11
71770;BME280;66386;52.122;5.420;2023-05-20T06:58:51;102529.31;;;18.47;50.54
71770;BME280;66386;52.122;5.420;2023-05-20T07:01:17;102529.31;;;18.26;51.41
71770;BME280;66386;52.122;5.420;2023-05-20T07:03:44;102522.31;;;18.28;52.81
71770;BME280;66386;52.122;5.420;2023-05-20T07:06:11;102518.81;;;18.48;53.36
71770;BME280;66386;52.122;5.420;2023-05-20T07:08:37;102524.94;;;18.68;50.67
71770;BME280;66386;52.122;5.420;2023-05-20T07:11:04;102517.19;;;18.66;52.90
71770;BME280;66386;52.122;5.420;2023-05-20T07:13:31;102519.59;;;18.71;52.46
71770;BME280;66386;52.122;5.420;2023-05-20T07:15:57;102525.25;;;18.81;52.04
71770;BME280;66386;52.122;5.420;2023-05-20T07:18:24;102517.09;;;18.89;51.27
71770;BME280;66386;52.122;5.420;2023-05-20T07:20:51;102514.34;;;18.92;50.59
71770;BME280;66386;52.122;5.420;2023-05-20T07:23:17;102509.13;;;19.11;50.86
71770;BME280;66386;52.122;5.420;2023-05-20T07:25:44;102512.88;;;19.05;49.58
71770;BME280;66386;52.122;5.420;2023-05-20T07:28:10;102508.78;;;18.99;49.37
71770;BME280;66386;52.122;5.420;2023-05-20T07:30:37;102503.56;;;19.18;51.02
71770;BME280;66386;52.122;5.420;2023-05-20T07:33:03;102495.94;;;19.33;49.32
71770;BME280;66386;52.122;5.420;2023-05-20T07:35:30;102498.34;;;19.18;48.30
71770;BME280;66386;52.122;5.420;2023-05-20T07:37:58;102491.03;;;19.08;49.12
71770;BME280;66386;52.122;5.420;2023-05-20T07:40:24;102499.59;;;19.29;48.03
71770;BME280;66386;52.122;5.420;2023-05-20T07:42:51;102494.16;;;19.52;48.14
71770;BME280;66386;52.122;5.420;2023-05-20T07:45:17;102492.00;;;19.61;47.29
71770;BME280;66386;52.122;5.420;2023-05-20T07:47:44;102493.63;;;19.63;46.96
71770;BME280;66386;52.122;5.420;2023-05-20T07:50:10;102489.53;;;19.58;47.73
71770;BME280;66386;52.122;5.420;2023-05-20T07:52:37;102485.31;;;19.55;46.72
71770;BME280;66386;52.122;5.420;2023-05-20T07:55:20;102483.44;;;19.76;46.09
71770;BME280;66386;52.122;5.420;2023-05-20T07:57:47;102474.06;;;19.72;46.07
71770;BME280;66386;52.122;5.420;2023-05-20T08:00:14;102474.41;;;20.01;46.15
71770;BME280;66386;52.122;5.420;2023-05-20T08:02:41;102465.03;;;19.97;44.80
71770;BME280;66386;52.122;5.420;2023-05-20T08:05:08;102472.72;;;20.00;45.66
71770;BME280;66386;52.122;5.420;2023-05-20T08:07:34;102463.41;;;20.12;44.47
71770;BME280;66386;52.122;5.420;2023-05-20T08:10:02;102472.53;;;20.20;43.97
71770;BME280;66386;52.122;5.420;2023-05-20T08:12:29;102460.44;;;20.35;43.64
71770;BME280;66386;52.122;5.420;2023-05-20T08:14:55;102467.44;;;20.35;43.64
71770;BME280;66386;52.122;5.420;2023-05-20T08:17:22;102461.72;;;20.44;42.10
71770;BME280;66386;52.122;5.420;2023-05-20T08:19:49;102456.25;;;20.66;41.65
71770;BME280;66386;52.122;5.420;2023-05-20T08:22:15;102464.59;;;20.89;40.30
71770;BME280;66386;52.122;5.420;2023-05-20T08:24:42;102462.50;;;20.96;41.39
71770;BME280;66386;52.122;5.420;2023-05-20T08:27:08;102466.94;;;21.09;40.92
71770;BME280;66386;52.122;5.420;2023-05-20T08:29:35;102463.97;;;21.16;40.17
71770;BME280;66386;52.122;5.420;2023-05-20T08:32:01;102463.06;;;21.01;40.36
71770;BME280;66386;52.122;5.420;2023-05-20T08:34:28;102461.88;;;21.22;39.91
71770;BME280;66386;52.122;5.420;2023-05-20T08:36:54;102452.47;;;21.50;40.46
71770;BME280;66386;52.122;5.420;2023-05-20T08:39:23;102455.66;;;21.71;39.12
71770;BME280;66386;52.122;5.420;2023-05-20T08:41:50;102454.00;;;21.85;39.33
71770;BME280;66386;52.122;5.420;2023-05-20T08:44:18;102451.59;;;22.25;37.58
71770;BME280;66386;52.122;5.420;2023-05-20T08:46:45;102455.69;;;22.14;38.57
71770;BME280;66386;52.122;5.420;2023-05-20T08:49:11;102448.59;;;22.45;38.28
71770;BME280;66386;52.122;5.420;2023-05-20T08:51:38;102441.59;;;22.46;36.91
71770;BME280;66386;52.122;5.420;2023-05-20T08:54:05;102434.75;;;22.58;37.10
71770;BME280;66386;52.122;5.420;2023-05-20T08:56:34;102434.97;;;22.82;36.86
71770;BME280;66386;52.122;5.420;2023-05-20T08:59:02;102433.88;;;22.72;36.64
71770;BME280;66386;52.122;5.420;2023-05-20T09:01:29;102440.63;;;22.61;36.01
71770;BME280;66386;52.122;5.420;2023-05-20T09:03:56;102427.56;;;22.47;37.17
71770;BME280;66386;52.122;5.420;2023-05-20T09:06:22;102432.44;;;22.39;36.07
71770;BME280;66386;52.122;5.420;2023-05-20T09:08:49;102431.66;;;22.22;37.15
71770;BME280;66386;52.122;5.420;2023-05-20T09:11:19;102416.34;;;22.45;35.77
71770;BME280;66386;52.122;5.420;2023-05-20T09:13:49;102427.00;;;22.56;36.75
71770;BME280;66386;52.122;5.420;2023-05-20T09:16:15;102420.88;;;22.70;35.81
71770;BME280;66386;52.122;5.420;2023-05-20T09:18:42;102429.25;;;22.34;36.96
71770;BME280;66386;52.122;5.420;2023-05-20T09:21:08;102432.03;;;22.59;36.37
71770;BME280;66386;52.122;5.420;2023-05-20T09:23:36;102431.19;;;22.59;36.34
71770;BME280;66386;52.122;5.420;2023-05-20T09:26:03;102418.66;;;22.64;35.65
71770;BME280;66386;52.122;5.420;2023-05-20T09:28:30;102427.59;;;22.74;36.44
71770;BME280;66386;52.122;5.420;2023-05-20T09:30:57;102420.69;;;23.00;35.95
71770;BME280;66386;52.122;5.420;2023-05-20T09:33:28;102416.72;;;22.80;35.22
71770;BME280;66386;52.122;5.420;2023-05-20T09:36:03;102404.66;;;22.78;34.76
71770;BME280;66386;52.122;5.420;2023-05-20T09:38:33;102412.47;;;22.65;34.25
71770;BME280;66386;52.122;5.420;2023-05-20T09:41:06;102416.84;;;22.64;34.98
71770;BME280;66386;52.122;5.420;2023-05-20T09:43:35;102407.97;;;22.67;34.35
71770;BME280;66386;52.122;5.420;2023-05-20T09:46:03;102404.66;;;22.78;34.74
71770;BME280;66386;52.122;5.420;2023-05-20T09:48:30;102414.53;;;22.60;35.09
71770;BME280;66386;52.122;5.420;2023-05-20T09:51:00;102417.94;;;22.33;34.56
71770;BME280;66386;52.122;5.420;2023-05-20T09:53:27;102407.44;;;22.19;36.48
71770;BME280;66386;52.122;5.420;2023-05-20T09:55:54;102406.59;;;22.33;36.26
71770;BME280;66386;52.122;5.420;2023-05-20T09:58:24;102393.22;;;22.23;35.22
71770;BME280;66386;52.122;5.420;2023-05-20T10:00:51;102386.69;;;22.16;35.84
71770;BME280;66386;52.122;5.420;2023-05-20T10:03:21;102393.31;;;22.07;35.39
71770;BME280;66386;52.122;5.420;2023-05-20T10:06:20;102404.34;;;22.12;36.02
71770;BME280;66386;52.122;5.420;2023-05-20T10:12:09;102409.25;;;21.59;37.07
71770;BME280;66386;52.122;5.420;2023-05-20T10:20:45;102377.50;;;21.79;36.91
71770;BME280;66386;52.122;5.420;2023-05-20T10:23:27;102378.44;;;21.93;36.40
71770;BME280;66386;52.122;5.420;2023-05-20T10:25:56;102373.03;;;22.39;36.99
71770;BME280;66386;52.122;5.420;2023-05-20T10:28:30;102367.91;;;22.65;37.69
71770;BME280;66386;52.122;5.420;2023-05-20T10:30:58;102360.78;;;22.94;35.72
71770;BME280;66386;52.122;5.420;2023-05-20T10:33:26;102357.44;;;23.05;34.82
71770;BME280;66386;52.122;5.420;2023-05-20T10:35:57;102356.78;;;22.89;36.47
71770;BME280;66386;52.122;5.420;2023-05-20T10:38:24;102358.16;;;22.67;35.26
71770;BME280;66386;52.122;5.420;2023-05-20T10:40:51;102352.09;;;22.66;36.65
71770;BME280;66386;52.122;5.420;2023-05-20T10:43:26;102353.59;;;22.83;35.24
71770;BME280;66386;52.122;5.420;2023-05-20T10:45:56;102338.94;;;22.94;34.94
71770;BME280;66386;52.122;5.420;2023-05-20T10:48:28;102341.69;;;22.92;35.80
71770;BME280;66386;52.122;5.420;2023-05-20T10:50:57;102352.63;;;22.72;35.24
71770;BME280;66386;52.122;5.420;2023-05-20T10:53:28;102351.97;;;22.12;36.12
71770;BME280;66386;52.122;5.420;2023-05-20T10:56:00;102359.66;;;21.86;36.42
71770;BME280;66386;52.122;5.420;2023-05-20T10:58:26;102346.19;;;21.64;37.25
71770;BME280;66386;52.122;5.420;2023-05-20T11:00:54;102345.16;;;21.36;37.50
71770;BME280;66386;52.122;5.420;2023-05-20T11:03:21;102343.00;;;21.58;37.36
71770;BME280;66386;52.122;5.420;2023-05-20T11:05:49;102337.41;;;21.93;36.52
71770;BME280;66386;52.122;5.420;2023-05-20T11:08:16;102332.41;;;22.18;36.58
71770;BME280;66386;52.122;5.420;2023-05-20T11:10:57;102325.56;;;22.44;36.80
71770;BME280;66386;52.122;5.420;2023-05-20T11:13:24;102329.50;;;22.78;37.48
71770;BME280;66386;52.122;5.420;2023-05-20T11:15:52;102316.84;;;22.98;36.13
71770;BME280;66386;52.122;5.420;2023-05-20T11:18:18;102318.31;;;23.02;35.38
71770;BME280;66386;52.122;5.420;2023-05-20T11:20:45;102325.03;;;23.06;34.78
71770;BME280;66386;52.122;5.420;2023-05-20T11:23:13;102322.19;;;22.96;35.18
71770;BME280;66386;52.122;5.420;2023-05-20T11:25:40;102326.66;;;22.54;36.23
71770;BME280;66386;52.122;5.420;2023-05-20T11:28:29;102329.19;;;22.00;36.63
71770;BME280;66386;52.122;5.420;2023-05-20T11:30:55;102331.78;;;21.56;38.02
71770;BME280;66386;52.122;5.420;2023-05-20T11:33:24;102327.41;;;21.86;37.61
71770;BME280;66386;52.122;5.420;2023-05-20T11:35:52;102312.78;;;22.10;37.04
71770;BME280;66386;52.122;5.420;2023-05-20T11:38:20;102311.69;;;22.00;37.41
71770;BME280;66386;52.122;5.420;2023-05-20T11:40:51;102309.34;;;22.10;37.63
71770;BME280;66386;52.122;5.420;2023-05-20T11:43:19;102309.69;;;22.33;37.03
71770;BME280;66386;52.122;5.420;2023-05-20T11:45:51;102311.19;;;22.37;38.44
71770;BME280;66386;52.122;5.420;2023-05-20T11:48:18;102300.59;;;22.24;36.97
71770;BME280;66386;52.122;5.420;2023-05-20T11:50:46;102311.38;;;22.34;37.78
71770;BME280;66386;52.122;5.420;2023-05-20T11:53:20;102294.75;;;22.75;36.97
71770;BME280;66386;52.122;5.420;2023-05-20T11:55:52;102292.63;;;22.94;38.02
71770;BME280;66386;52.122;5.420;2023-05-20T11:58:30;102301.72;;;23.16;35.40
71770;BME280;66386;52.122;5.420;2023-05-20T12:00:57;102298.34;;;22.87;36.45
71770;BME280;66386;52.122;5.420;2023-05-20T12:03:39;102289.19;;;22.66;36.50
71770;BME280;66386;52.122;5.420;2023-05-20T12:06:06;102285.81;;;22.64;37.56
71770;BME280;66386;52.122;5.420;2023-05-20T12:08:32;102284.69;;;22.69;35.89
71770;BME280;66386;52.122;5.420;2023-05-20T12:10:58;102278.19;;;22.34;37.48
71770;BME280;66386;52.122;5.420;2023-05-20T12:13:25;102269.00;;;22.81;36.63
71770;BME280;66386;52.122;5.420;2023-05-20T12:15:51;102267.47;;;23.05;36.11
71770;BME280;66386;52.122;5.420;2023-05-20T12:18:18;102264.34;;;23.25;36.42
71770;BME280;66386;52.122;5.420;2023-05-20T12:20:45;102264.03;;;23.43;36.25
71770;BME280;66386;52.122;5.420;2023-05-20T12:23:11;102267.47;;;23.56;35.64
71770;BME280;66386;52.122;5.420;2023-05-20T12:25:37;102273.16;;;23.24;36.14
71770;BME280;66386;52.122;5.420;2023-05-20T12:28:04;102274.34;;;22.80;36.31
71770;BME280;66386;52.122;5.420;2023-05-20T12:30:32;102268.38;;;22.51;37.06
71770;BME280;66386;52.122;5.420;2023-05-20T12:32:59;102262.53;;;22.33;37.66
71770;BME280;66386;52.122;5.420;2023-05-20T12:35:35;102279.50;;;22.12;37.99
71770;BME280;66386;52.122;5.420;2023-05-20T12:38:02;102264.81;;;22.10;37.35
71770;BME280;66386;52.122;5.420;2023-05-20T12:40:29;102270.69;;;22.13;37.96
71770;BME280;66386;52.122;5.420;2023-05-20T12:42:56;102264.41;;;22.30;36.84
71770;BME280;66386;52.122;5.420;2023-05-20T12:45:23;102266.09;;;22.31;37.30
71770;BME280;66386;52.122;5.420;2023-05-20T12:47:49;102270.13;;;22.23;37.97
71770;BME280;66386;52.122;5.420;2023-05-20T12:50:16;102271.56;;;22.14;38.65
71770;BME280;66386;52.122;5.420;2023-05-20T12:52:43;102270.97;;;22.23;37.29
71770;BME280;66386;52.122;5.420;2023-05-20T12:55:09;102262.59;;;22.31;38.05
71770;BME280;66386;52.122;5.420;2023-05-20T12:57:43;102260.03;;;22.58;37.99
71770;BME280;66386;52.122;5.420;2023-05-20T13:00:10;102253.59;;;22.49;37.97
71770;BME280;66386;52.122;5.420;2023-05-20T13:02:38;102253.69;;;22.48;37.74